Time;durP1;ratioP1;P1;durP2;ratioP2;P2;SDS_P1;SDS_P2;PMS_P1;PMS_P2;Temp;Humidity;BMP_temperature;BMP_pressure;BME280_temperature;BME280_humidity;BME280_pressure;Samples;Min_cycle;Max_cycle;Signal;HPM_P1;HPM_P2
2021/03/09 00:02:02;;;;;;;5.95;2.47;;;0.30;93.30;;;;;;5051523;28;20013;-53
2021/03/09 00:04:27;;;;;;;5.07;2.65;;;0.40;93.10;;;;;;5050073;28;20025;-56
2021/03/09 00:06:53;;;;;;;2.83;1.90;;;0.30;93.40;;;;;;5045503;28;20017;-55
2021/03/09 00:09:18;;;;;;;4.30;2.05;;;0.30;93.40;;;;;;5052768;28;20051;-53
2021/03/09 00:11:44;;;;;;;4.85;2.17;;;0.40;92.80;;;;;;5041808;28;20061;-55
2021/03/09 00:14:10;;;;;;;4.68;2.20;;;0.30;93.00;;;;;;5038650;28;20116;-53
2021/03/09 00:16:35;;;;;;;4.43;2.70;;;0.30;93.30;;;;;;5035205;28;20027;-52
2021/03/09 00:19:01;;;;;;;5.13;2.80;;;0.30;93.40;;;;;;5041476;28;20025;-53
2021/03/09 00:21:26;;;;;;;4.20;1.90;;;0.30;93.50;;;;;;5040614;28;20053;-55
2021/03/09 00:23:52;;;;;;;3.88;2.35;;;0.30;93.30;;;;;;5036521;28;20028;-53
2021/03/09 00:26:17;;;;;;;3.38;2.53;;;0.30;93.40;;;;;;5030363;28;20105;-57
2021/03/09 00:28:43;;;;;;;4.50;2.17;;;0.30;92.90;;;;;;5029016;28;20385;-53
2021/03/09 00:31:09;;;;;;;3.78;2.17;;;0.30;93.30;;;;;;5033941;28;20457;-55
2021/03/09 00:33:34;;;;;;;3.28;2.45;;;0.30;94.00;;;;;;5029090;28;20026;-55
2021/03/09 00:36:00;;;;;;;4.78;2.10;;;0.30;92.50;;;;;;5020575;28;20075;-52
2021/03/09 00:38:25;;;;;;;4.15;2.40;;;0.30;92.50;;;;;;5030653;28;20025;-55
2021/03/09 00:40:51;;;;;;;2.72;1.95;;;0.30;92.40;;;;;;5036223;22;20046;-50
2021/03/09 00:43:16;;;;;;;4.03;1.85;;;0.40;92.20;;;;;;5033729;28;20040;-47
2021/03/09 00:45:42;;;;;;;2.88;2.10;;;0.40;91.20;;;;;;5039943;28;20013;-47
2021/03/09 00:48:07;;;;;;;2.60;1.98;;;0.40;91.40;;;;;;5037921;28;20053;-47
2021/03/09 00:50:34;;;;;;;5.90;2.00;;;0.40;91.30;;;;;;5040440;28;20067;-48
2021/03/09 00:53:00;;;;;;;4.03;1.95;;;0.50;91.20;;;;;;5049655;28;20025;-48
2021/03/09 00:55:25;;;;;;;2.65;2.35;;;0.50;90.90;;;;;;5053427;28;20036;-47
2021/03/09 00:57:58;;;;;;;5.43;2.00;;;0.50;90.60;;;;;;5055658;28;20022;-48
2021/03/09 01:00:25;;;;;;;4.88;2.00;;;0.50;91.00;;;;;;5048387;28;20425;-47
2021/03/09 01:02:51;;;;;;;4.30;2.22;;;0.50;90.40;;;;;;5050460;28;20017;-47
2021/03/09 01:05:18;;;;;;;4.38;2.35;;;0.50;90.10;;;;;;5048788;28;20392;-49
2021/03/09 01:07:43;;;;;;;2.53;1.88;;;0.50;90.70;;;;;;5054605;28;20021;-47
2021/03/09 01:10:10;;;;;;;2.92;1.90;;;0.50;89.50;;;;;;5054212;28;20036;-47
2021/03/09 01:12:36;;;;;;;2.92;1.60;;;0.50;90.10;;;;;;5048030;28;20112;-47
2021/03/09 01:15:03;;;;;;;2.88;1.63;;;0.50;89.40;;;;;;5040724;28;20167;-48
2021/03/09 01:17:29;;;;;;;4.82;1.80;;;0.50;89.40;;;;;;5059672;28;20407;-51
2021/03/09 01:19:54;;;;;;;3.85;2.13;;;0.50;89.30;;;;;;5045096;28;20017;-48
2021/03/09 01:22:20;;;;;;;4.30;1.90;;;0.50;90.60;;;;;;5050246;28;20021;-46
2021/03/09 01:24:45;;;;;;;4.07;2.42;;;0.50;89.30;;;;;;5050483;28;20020;-49
2021/03/09 01:27:11;;;;;;;2.25;1.98;;;0.40;90.00;;;;;;5048334;28;20023;-48
2021/03/09 01:29:37;;;;;;;2.78;1.90;;;0.50;90.40;;;;;;5047618;28;20025;-49
2021/03/09 01:32:04;;;;;;;4.47;2.33;;;0.50;90.20;;;;;;5052061;28;20049;-49
2021/03/09 01:34:30;;;;;;;2.85;1.85;;;0.50;90.40;;;;;;5049514;28;20082;-49
2021/03/09 01:36:56;;;;;;;3.60;2.00;;;0.50;90.00;;;;;;5049464;28;20036;-46
2021/03/09 01:39:21;;;;;;;3.45;2.05;;;0.50;90.60;;;;;;5047616;28;20040;-47
2021/03/09 01:41:47;;;;;;;3.05;2.08;;;0.50;90.40;;;;;;5049541;28;20036;-47
2021/03/09 01:44:12;;;;;;;4.70;2.33;;;0.50;90.40;;;;;;5050347;28;20021;-48
2021/03/09 01:46:44;;;;;;;3.92;2.10;;;0.50;90.40;;;;;;5050130;28;20028;-48
2021/03/09 01:49:13;;;;;;;5.78;2.13;;;0.50;89.60;;;;;;5045006;28;20041;-48
2021/03/09 01:51:39;;;;;;;2.88;2.10;;;0.50;89.00;;;;;;5044850;28;20036;-48
2021/03/09 01:54:05;;;;;;;3.72;2.00;;;0.50;89.00;;;;;;5049862;28;20024;-48
2021/03/09 01:56:30;;;;;;;7.00;2.20;;;0.50;89.60;;;;;;5049993;28;20059;-48
2021/03/09 01:58:58;;;;;;;5.10;1.67;;;0.50;89.50;;;;;;5043340;28;20081;-47
2021/03/09 02:01:23;;;;;;;1.67;1.58;;;0.50;90.30;;;;;;5046061;28;20098;-50
2021/03/09 02:03:50;;;;;;;3.58;1.80;;;0.50;89.60;;;;;;5049235;28;20526;-50
2021/03/09 02:06:16;;;;;;;4.70;2.60;;;0.50;89.60;;;;;;5048190;28;20019;-49
2021/03/09 02:08:43;;;;;;;4.32;1.85;;;0.50;90.00;;;;;;5048325;28;20099;-49
2021/03/09 02:11:21;;;;;;;2.20;1.80;;;0.50;90.10;;;;;;5047351;28;20029;-48
2021/03/09 02:14:12;;;;;;;3.10;2.13;;;0.50;90.20;;;;;;5048100;28;20029;-47
2021/03/09 02:17:15;;;;;;;3.10;1.83;;;0.40;89.50;;;;;;5048161;28;20056;-49
2021/03/09 02:20:13;;;;;;;2.88;1.70;;;0.40;89.40;;;;;;5046359;28;20519;-47
2021/03/09 02:22:44;;;;;;;5.13;1.67;;;0.40;90.00;;;;;;5045366;28;20021;-47
2021/03/09 02:25:39;;;;;;;5.13;1.98;;;0.40;90.50;;;;;;5047642;28;20028;-47
2021/03/09 02:28:29;;;;;;;2.58;1.80;;;0.40;88.40;;;;;;5009226;28;20037;-48
2021/03/09 02:30:57;;;;;;;5.13;1.92;;;0.40;90.10;;;;;;5046481;28;20025;-49
2021/03/09 02:33:29;;;;;;;2.33;1.70;;;0.40;88.30;;;;;;5047568;28;20021;-48
2021/03/09 02:36:05;;;;;;;2.95;1.73;;;0.40;87.50;;;;;;5047099;28;20025;-49
2021/03/09 02:38:51;;;;;;;3.90;2.05;;;0.50;87.90;;;;;;5047464;28;20033;-50
2021/03/09 02:41:19;;;;;;;4.50;1.90;;;0.50;87.80;;;;;;5047118;28;20032;-52
2021/03/09 02:43:48;;;;;;;2.33;1.85;;;0.50;88.10;;;;;;5046366;28;20116;-52
2021/03/09 02:46:15;;;;;;;2.95;1.35;;;0.50;87.40;;;;;;5047154;28;20021;-53
2021/03/09 02:48:42;;;;;;;2.13;1.50;;;0.50;87.90;;;;;;5047377;28;20751;-49
2021/03/09 02:51:08;;;;;;;2.45;1.85;;;0.40;87.90;;;;;;5045442;28;20089;-50
2021/03/09 02:53:36;;;;;;;6.05;1.67;;;0.40;88.10;;;;;;5047329;28;20545;-49
2021/03/09 02:56:04;;;;;;;2.13;1.83;;;0.40;88.70;;;;;;5046096;28;20036;-47
2021/03/09 02:58:30;;;;;;;2.70;1.67;;;0.40;88.60;;;;;;5044560;28;20025;-51
2021/03/09 03:00:57;;;;;;;4.35;1.50;;;0.40;89.10;;;;;;5043417;28;20219;-50
2021/03/09 03:03:23;;;;;;;2.95;1.52;;;0.30;88.90;;;;;;5046352;28;20029;-48
2021/03/09 03:05:49;;;;;;;2.17;1.67;;;0.30;89.10;;;;;;5045677;28;20024;-49
2021/03/09 03:08:16;;;;;;;2.72;1.42;;;0.30;89.80;;;;;;5047095;28;20029;-47
2021/03/09 03:10:47;;;;;;;3.28;1.63;;;0.30;90.40;;;;;;5046021;28;20079;-47
2021/03/09 03:13:14;;;;;;;2.45;1.25;;;0.30;90.50;;;;;;5046882;28;20107;-48
2021/03/09 03:15:41;;;;;;;3.78;1.83;;;0.20;90.60;;;;;;5047199;28;20021;-47
2021/03/09 03:18:13;;;;;;;3.03;1.73;;;0.20;90.60;;;;;;5044027;28;20082;-49
2021/03/09 03:20:42;;;;;;;3.72;1.30;;;0.20;90.60;;;;;;5045232;28;20049;-49
2021/03/09 03:23:09;;;;;;;2.05;1.67;;;0.20;90.50;;;;;;5046014;28;20087;-49
2021/03/09 03:25:35;;;;;;;1.95;1.58;;;0.20;90.70;;;;;;5046019;28;20045;-46
2021/03/09 03:28:02;;;;;;;3.75;1.38;;;0.20;90.90;;;;;;5046992;28;20025;-48
2021/03/09 03:30:28;;;;;;;2.85;1.60;;;0.20;90.90;;;;;;5046306;28;20124;-48
2021/03/09 03:32:54;;;;;;;2.90;1.65;;;0.20;90.50;;;;;;5047051;28;20100;-47
2021/03/09 03:35:19;;;;;;;1.85;1.67;;;0.20;90.30;;;;;;5046780;28;20021;-49
2021/03/09 03:37:45;;;;;;;2.10;1.85;;;0.20;90.50;;;;;;5046652;28;20083;-47
2021/03/09 03:40:12;;;;;;;1.48;1.35;;;0.20;90.80;;;;;;5046217;28;20100;-49
2021/03/09 03:42:39;;;;;;;2.88;1.40;;;0.20;90.80;;;;;;5046844;28;20060;-48
2021/03/09 03:45:06;;;;;;;4.97;1.90;;;0.20;90.70;;;;;;5046277;28;20029;-47
2021/03/09 03:47:33;;;;;;;2.03;1.63;;;0.20;90.90;;;;;;5050523;28;20025;-47
2021/03/09 03:49:58;;;;;;;3.65;1.42;;;0.10;90.90;;;;;;5046328;28;20033;-47
2021/03/09 03:52:44;;;;;;;3.85;1.80;;;0.10;91.00;;;;;;5050223;28;20094;-47
2021/03/09 03:55:36;;;;;;;5.75;1.80;;;0.10;90.90;;;;;;5045952;28;20132;-47
2021/03/09 03:58:29;;;;;;;3.10;1.75;;;0.10;91.20;;;;;;5044075;28;20028;-47
2021/03/09 04:00:57;;;;;;;4.28;1.77;;;0.20;91.30;;;;;;5038450;28;20037;-50
2021/03/09 04:03:23;;;;;;;2.53;1.77;;;0.10;91.30;;;;;;5051467;28;20484;-49
2021/03/09 04:05:49;;;;;;;4.50;1.60;;;0.10;91.30;;;;;;5050311;28;20029;-47
2021/03/09 04:08:16;;;;;;;4.45;1.60;;;0.20;91.20;;;;;;5049386;28;20433;-49
2021/03/09 04:10:43;;;;;;;3.80;1.67;;;0.20;91.50;;;;;;5040718;28;20025;-47
2021/03/09 04:13:09;;;;;;;3.08;1.60;;;0.10;91.20;;;;;;5040018;28;20089;-48
2021/03/09 04:15:37;;;;;;;3.45;1.75;;;0.10;91.30;;;;;;5051340;28;20435;-49
2021/03/09 04:18:08;;;;;;;4.85;1.83;;;0.20;91.80;;;;;;5049512;28;20104;-47
2021/03/09 04:20:40;;;;;;;4.43;1.40;;;0.20;91.50;;;;;;5037329;28;20021;-50
2021/03/09 04:23:06;;;;;;;3.08;1.60;;;0.20;91.30;;;;;;5050838;28;20509;-47
2021/03/09 04:25:36;;;;;;;3.05;1.65;;;0.20;91.10;;;;;;5040414;28;20023;-50
2021/03/09 04:28:02;;;;;;;2.97;1.58;;;0.20;91.10;;;;;;5050266;28;20033;-48
2021/03/09 04:30:31;;;;;;;2.17;1.63;;;0.20;91.30;;;;;;5040813;28;20025;-47
2021/03/09 04:32:56;;;;;;;3.70;1.65;;;0.20;91.30;;;;;;5050437;28;20087;-47
2021/03/09 04:35:22;;;;;;;2.50;1.70;;;0.20;91.50;;;;;;5049407;28;20037;-49
2021/03/09 04:37:49;;;;;;;2.70;1.80;;;0.20;91.50;;;;;;5038175;28;20029;-48
2021/03/09 04:40:15;;;;;;;3.53;1.60;;;0.20;91.70;;;;;;5044361;28;20028;-48
2021/03/09 04:42:41;;;;;;;2.25;1.58;;;0.20;91.20;;;;;;5050065;28;20099;-49
2021/03/09 04:45:07;;;;;;;2.45;1.75;;;0.20;91.50;;;;;;5050101;28;20167;-47
2021/03/09 04:47:34;;;;;;;3.22;1.65;;;0.30;93.00;;;;;;5050093;28;20025;-47
2021/03/09 04:50:00;;;;;;;2.20;1.50;;;0.20;93.20;;;;;;5049767;28;20043;-47
2021/03/09 04:52:27;;;;;;;2.03;1.83;;;0.20;93.70;;;;;;5049574;28;20040;-47
2021/03/09 04:54:53;;;;;;;2.67;1.48;;;0.20;93.70;;;;;;5045654;28;20030;-47
2021/03/09 04:57:26;;;;;;;1.75;1.52;;;0.20;93.80;;;;;;5037286;28;20045;-48
2021/03/09 04:59:51;;;;;;;4.03;2.22;;;0.20;94.80;;;;;;5037911;28;20116;-49
2021/03/09 05:02:17;;;;;;;3.45;1.90;;;0.30;95.70;;;;;;5047451;28;20096;-49
2021/03/09 05:04:42;;;;;;;3.08;2.08;;;0.20;96.70;;;;;;5049771;28;20032;-48
2021/03/09 05:07:08;;;;;;;3.47;1.90;;;0.20;97.60;;;;;;5049824;28;20037;-48
2021/03/09 05:09:33;;;;;;;3.17;2.35;;;0.20;99.00;;;;;;5049290;28;20025;-49
2021/03/09 05:11:59;;;;;;;2.83;1.95;;;0.20;99.90;;;;;;5048942;28;20029;-47
2021/03/09 05:14:25;;;;;;;2.67;2.47;;;0.20;99.90;;;;;;5040858;28;20025;-48
2021/03/09 05:16:50;;;;;;;3.83;2.08;;;0.20;99.90;;;;;;5049741;28;20020;-47
2021/03/09 05:19:16;;;;;;;2.53;2.03;;;0.20;99.90;;;;;;5046521;28;20053;-47
2021/03/09 05:21:41;;;;;;;4.80;2.20;;;0.20;99.90;;;;;;5049576;28;20500;-47
2021/03/09 05:24:07;;;;;;;4.43;2.50;;;0.20;99.90;;;;;;5049753;28;20025;-48
2021/03/09 05:26:33;;;;;;;3.75;2.20;;;0.20;99.90;;;;;;5045800;28;20039;-49
2021/03/09 05:28:59;;;;;;;3.45;2.15;;;0.20;99.90;;;;;;5043297;28;20025;-48
2021/03/09 05:31:25;;;;;;;3.30;1.95;;;0.20;99.90;;;;;;5048954;28;20021;-47
2021/03/09 05:33:50;;;;;;;2.45;2.25;;;0.20;99.90;;;;;;5049449;28;20025;-49
2021/03/09 05:36:16;;;;;;;3.67;2.33;;;0.20;99.90;;;;;;5048854;28;20108;-48
2021/03/09 05:38:41;;;;;;;4.93;2.85;;;0.20;99.90;;;;;;5049263;28;20024;-47
2021/03/09 05:41:07;;;;;;;2.92;2.00;;;0.10;99.90;;;;;;5043127;28;20090;-47
2021/03/09 05:43:33;;;;;;;3.47;2.20;;;0.10;99.90;;;;;;5044009;28;20518;-47
2021/03/09 05:45:59;;;;;;;3.45;1.95;;;0.10;99.90;;;;;;5048883;28;20029;-47
2021/03/09 05:48:25;;;;;;;5.80;2.90;;;0.10;99.90;;;;;;5044840;28;20494;-47
2021/03/09 05:50:53;;;;;;;3.58;2.35;;;0.10;99.90;;;;;;5033099;28;20356;-48
2021/03/09 05:53:18;;;;;;;2.78;1.90;;;0.10;99.90;;;;;;5047663;28;20025;-51
2021/03/09 05:55:44;;;;;;;3.80;2.35;;;0.10;99.90;;;;;;5038573;28;20025;-48
2021/03/09 05:58:11;;;;;;;5.28;2.88;;;0.10;99.90;;;;;;5039934;28;20041;-47
2021/03/09 06:00:36;;;;;;;3.45;2.33;;;0.10;99.90;;;;;;5030958;28;20052;-47
2021/03/09 06:03:02;;;;;;;4.22;2.33;;;0.00;99.90;;;;;;5049474;28;20025;-50
2021/03/09 06:05:28;;;;;;;4.85;2.35;;;0.00;99.90;;;;;;5048483;28;20044;-46
2021/03/09 06:07:54;;;;;;;3.08;2.17;;;0.00;99.90;;;;;;5042899;28;20116;-49
2021/03/09 06:10:21;;;;;;;4.05;2.42;;;0.00;99.90;;;;;;5034051;28;20028;-49
2021/03/09 06:12:48;;;;;;;3.30;2.35;;;0.00;99.90;;;;;;5041919;28;20021;-52
2021/03/09 06:15:13;;;;;;;5.53;2.53;;;0.00;99.90;;;;;;5047436;28;20084;-50
2021/03/09 06:17:40;;;;;;;4.90;2.85;;;0.00;99.90;;;;;;5048982;28;20036;-49
2021/03/09 06:20:08;;;;;;;5.03;2.50;;;0.00;99.90;;;;;;5046215;28;20040;-46
2021/03/09 06:22:59;;;;;;;3.13;2.50;;;0.00;99.90;;;;;;5047227;28;20028;-46
2021/03/09 06:25:27;;;;;;;4.70;2.40;;;-0.10;99.90;;;;;;5045446;28;20021;-49
2021/03/09 06:27:53;;;;;;;5.22;2.42;;;0.00;99.90;;;;;;5043057;28;20017;-49
2021/03/09 06:30:24;;;;;;;4.47;2.35;;;0.00;99.90;;;;;;5043510;28;20018;-48
2021/03/09 06:32:50;;;;;;;3.88;2.65;;;0.00;99.90;;;;;;5042157;28;20407;-49
2021/03/09 06:35:39;;;;;;;2.88;2.28;;;-0.10;99.90;;;;;;5037348;28;20033;-48
2021/03/09 06:38:24;;;;;;;3.42;2.58;;;0.00;99.90;;;;;;5035621;28;20045;-52
2021/03/09 06:41:12;;;;;;;3.72;2.38;;;0.00;99.90;;;;;;5047544;28;20035;-49
2021/03/09 06:43:40;;;;;;;4.15;2.35;;;0.00;99.90;;;;;;5046713;28;20024;-47
2021/03/09 06:46:17;;;;;;;6.95;2.25;;;0.00;99.90;;;;;;5048363;28;20021;-48
2021/03/09 06:48:43;;;;;;;;;;;-0.10;99.90;;;;;;5048772;28;20538;-51
2021/03/09 06:51:33;;;;;;;3.55;2.17;;;-0.10;99.90;;;;;;5038906;28;19908;-46
2021/03/09 06:54:07;;;;;;;3.85;2.13;;;-0.10;99.90;;;;;;5048016;28;20043;-48
2021/03/09 06:56:35;;;;;;;3.38;2.22;;;-0.10;99.90;;;;;;5048503;28;20533;-46
2021/03/09 06:59:22;;;;;;;3.65;2.85;;;-0.10;99.90;;;;;;5048003;28;20054;-49
2021/03/09 07:02:18;;;;;;;4.85;2.70;;;-0.10;99.90;;;;;;5047854;28;20024;-47
2021/03/09 07:04:46;;;;;;;3.93;2.63;;;-0.10;99.90;;;;;;5035411;28;20029;-47
2021/03/09 07:07:14;;;;;;;3.70;2.63;;;-0.10;99.90;;;;;;5040861;28;20417;-47
2021/03/09 07:09:51;;;;;;;4.88;2.05;;;-0.20;99.90;;;;;;5043159;28;20028;-46
2021/03/09 07:12:18;;;;;;;3.10;2.45;;;-0.10;99.90;;;;;;5048096;28;20033;-48
2021/03/09 07:14:45;;;;;;;3.15;2.58;;;-0.10;99.90;;;;;;5048048;28;20114;-46
2021/03/09 07:17:13;;;;;;;2.92;2.58;;;-0.10;99.90;;;;;;5047034;28;20095;-48
2021/03/09 07:19:43;;;;;;;5.57;2.40;;;-0.10;99.90;;;;;;5047877;28;20093;-46
2021/03/09 07:22:11;;;;;;;2.90;2.50;;;-0.10;99.90;;;;;;5049861;28;20029;-46
2021/03/09 07:24:45;;;;;;;5.00;3.22;;;-0.10;99.90;;;;;;5051463;28;20497;-45
2021/03/09 07:27:16;;;;;;;4.68;2.75;;;-0.10;99.90;;;;;;5051476;28;20471;-48
2021/03/09 07:29:48;;;;;;;3.58;2.55;;;-0.10;99.90;;;;;;5051331;28;20044;-49
2021/03/09 07:32:16;;;;;;;4.15;2.70;;;-0.10;99.90;;;;;;5050678;28;20029;-47
2021/03/09 07:34:42;;;;;;;3.90;2.08;;;0.00;99.90;;;;;;5046210;28;20467;-47
2021/03/09 07:37:08;;;;;;;4.47;3.58;;;-0.10;99.90;;;;;;5049814;28;20124;-48
2021/03/09 07:39:37;;;;;;;3.50;2.55;;;0.00;99.90;;;;;;5050917;28;20159;-46
2021/03/09 07:42:03;;;;;;;3.58;2.50;;;0.00;99.90;;;;;;5046063;28;20048;-46
2021/03/09 07:44:29;;;;;;;3.67;2.63;;;0.00;99.90;;;;;;5051111;28;20088;-47
2021/03/09 07:46:55;;;;;;;3.50;2.58;;;0.00;99.90;;;;;;5051447;28;20013;-48
2021/03/09 07:49:20;;;;;;;3.92;2.72;;;0.00;99.90;;;;;;5050841;28;20128;-48
2021/03/09 07:52:07;;;;;;;4.20;2.83;;;0.00;99.90;;;;;;5051136;28;20039;-47
2021/03/09 07:54:33;;;;;;;5.18;2.80;;;0.00;99.90;;;;;;5048627;28;20138;-47
2021/03/09 07:57:21;;;;;;;5.13;3.22;;;0.00;99.90;;;;;;5051186;28;20052;-47
2021/03/09 07:59:59;;;;;;;5.75;2.65;;;0.00;99.90;;;;;;5048284;28;20049;-46
2021/03/09 08:02:43;;;;;;;4.70;2.97;;;0.00;99.90;;;;;;5050905;28;20047;-46
2021/03/09 08:05:14;;;;;;;5.40;2.95;;;0.00;99.90;;;;;;5044432;28;20077;-49
2021/03/09 08:07:50;;;;;;;4.38;3.00;;;0.00;99.90;;;;;;5047118;28;20747;-46
2021/03/09 08:10:35;;;;;;;6.55;2.95;;;0.00;99.90;;;;;;5050986;28;20013;-47
2021/03/09 08:13:07;;;;;;;4.78;2.80;;;0.00;99.90;;;;;;5043650;28;20045;-48
2021/03/09 08:15:34;;;;;;;5.28;2.47;;;0.00;99.90;;;;;;5050787;28;20035;-46
2021/03/09 08:18:24;;;;;;;4.65;3.20;;;0.00;99.90;;;;;;5050106;28;20061;-48
2021/03/09 08:20:54;;;;;;;4.28;3.30;;;0.00;99.90;;;;;;5048074;28;20080;-47
2021/03/09 08:23:32;;;;;;;3.88;2.53;;;0.00;99.90;;;;;;5050188;28;20016;-47
2021/03/09 08:25:58;;;;;;;4.50;3.25;;;0.00;99.90;;;;;;5047691;28;20049;-48
2021/03/09 08:28:34;;;;;;;5.07;3.20;;;-0.10;99.90;;;;;;5049511;28;20021;-50
2021/03/09 08:31:09;;;;;;;4.63;3.10;;;0.00;99.90;;;;;;5054299;28;20029;-48
2021/03/09 08:33:36;;;;;;;4.05;3.25;;;0.00;99.90;;;;;;5047096;28;20087;-46
2021/03/09 08:39:05;;;;;;;5.78;3.35;;;0.00;99.90;;;;;;5047307;28;20504;-49
2021/03/09 08:41:42;;;;;;;4.68;3.05;;;0.00;99.90;;;;;;5047034;28;20369;-49
2021/03/09 08:44:17;;;;;;;4.95;3.38;;;0.00;99.90;;;;;;5051987;28;20025;-47
2021/03/09 08:47:05;;;;;;;3.72;3.00;;;0.10;99.90;;;;;;5049360;28;20108;-47
2021/03/09 08:49:37;;;;;;;4.55;3.15;;;0.10;99.90;;;;;;5047611;28;20032;-47
2021/03/09 08:52:14;;;;;;;5.40;3.33;;;0.10;99.90;;;;;;5049491;28;20114;-48
2021/03/09 08:54:48;;;;;;;6.97;3.47;;;0.10;99.90;;;;;;5052592;28;20490;-48
2021/03/09 08:57:17;;;;;;;7.50;3.28;;;0.10;99.90;;;;;;5055539;28;20024;-48
2021/03/09 08:59:47;;;;;;;6.53;3.17;;;0.20;99.90;;;;;;5046187;28;20086;-47
2021/03/09 09:02:17;;;;;;;7.97;3.28;;;0.20;99.90;;;;;;5049560;28;20032;-49
2021/03/09 09:04:45;;;;;;;9.15;3.50;;;0.20;99.90;;;;;;5048826;28;20021;-49
2021/03/09 09:07:26;;;;;;;5.57;3.30;;;0.20;99.90;;;;;;5049739;28;20506;-47
2021/03/09 09:10:04;;;;;;;6.15;3.42;;;0.30;99.90;;;;;;5048418;28;20740;-52
2021/03/09 09:12:31;;;;;;;5.55;4.05;;;0.20;99.90;;;;;;5049675;28;20036;-49
2021/03/09 09:15:04;;;;;;;4.55;3.20;;;0.30;99.90;;;;;;5049377;28;20093;-49
2021/03/09 09:17:30;;;;;;;5.00;3.40;;;0.30;99.90;;;;;;5047513;28;20035;-49
2021/03/09 09:19:58;;;;;;;5.95;4.05;;;0.30;99.90;;;;;;5049312;28;20503;-49
2021/03/09 09:22:25;;;;;;;5.75;3.80;;;0.30;99.90;;;;;;5049429;28;20017;-51
2021/03/09 09:24:55;;;;;;;4.97;3.47;;;0.30;99.90;;;;;;5049168;28;20020;-48
2021/03/09 09:27:21;;;;;;;7.00;3.42;;;0.30;99.90;;;;;;5049361;28;20029;-50
2021/03/09 09:29:56;;;;;;;5.53;4.03;;;0.30;99.90;;;;;;5049436;28;20024;-53
2021/03/09 09:32:23;;;;;;;5.28;3.45;;;0.30;99.90;;;;;;5049026;28;20479;-49
2021/03/09 09:34:59;;;;;;;8.43;3.83;;;0.30;99.90;;;;;;5049480;28;20025;-48
2021/03/09 09:37:25;;;;;;;;;;;0.30;99.90;;;;;;5049850;28;20035;-47
2021/03/09 09:39:51;;;;;;;4.53;3.47;;;0.30;99.90;;;;;;5049068;28;20393;-48
2021/03/09 09:42:18;;;;;;;5.15;3.63;;;0.30;99.90;;;;;;5048727;28;20047;-49
2021/03/09 09:44:45;;;;;;;6.43;3.70;;;0.40;99.90;;;;;;5047429;28;20021;-50
2021/03/09 09:47:13;;;;;;;6.20;3.60;;;0.40;99.90;;;;;;5047541;28;20031;-53
2021/03/09 09:49:41;;;;;;;6.22;4.05;;;0.40;99.90;;;;;;5049156;28;20024;-49
2021/03/09 09:52:12;;;;;;;7.88;4.05;;;0.40;99.90;;;;;;5048098;28;20017;-50
2021/03/09 09:54:37;;;;;;;5.55;3.75;;;0.50;99.90;;;;;;5046430;28;20040;-47
2021/03/09 09:57:10;;;;;;;7.97;4.25;;;0.50;99.90;;;;;;5049341;28;20021;-48
2021/03/09 09:59:36;;;;;;;6.63;4.32;;;0.50;99.90;;;;;;5049242;28;20111;-47
2021/03/09 10:02:17;;;;;;;7.72;4.65;;;0.60;99.90;;;;;;5049026;28;20075;-49
2021/03/09 10:04:43;;;;;;;7.03;4.95;;;0.60;99.90;;;;;;5048214;28;20491;-49
2021/03/09 10:07:20;;;;;;;8.48;4.55;;;0.60;99.90;;;;;;5048829;28;20017;-47
2021/03/09 10:10:03;;;;;;;4.97;3.53;;;0.70;99.90;;;;;;5048449;28;20159;-51
2021/03/09 10:12:37;;;;;;;7.95;4.82;;;0.70;99.90;;;;;;5048696;28;20491;-50
2021/03/09 10:15:05;;;;;;;6.25;4.65;;;0.70;99.90;;;;;;5048114;28;20119;-51
2021/03/09 10:17:31;;;;;;;6.35;4.70;;;0.80;99.90;;;;;;5048598;28;20112;-50
2021/03/09 10:19:56;;;;;;;8.02;4.75;;;0.80;99.90;;;;;;5048215;28;20120;-48
2021/03/09 10:22:25;;;;;;;7.35;5.13;;;0.80;99.90;;;;;;5048563;28;20017;-48
2021/03/09 10:24:51;;;;;;;7.95;5.32;;;0.80;99.90;;;;;;5048675;28;20135;-49
2021/03/09 10:27:23;;;;;;;7.55;4.55;;;0.90;99.90;;;;;;5048756;28;20502;-51
2021/03/09 10:29:54;;;;;;;8.70;6.03;;;0.90;99.90;;;;;;5048761;28;20021;-49
2021/03/09 10:32:20;;;;;;;9.00;5.30;;;0.90;99.90;;;;;;5046271;28;20041;-49
2021/03/09 10:34:48;;;;;;;10.55;5.82;;;1.00;99.90;;;;;;5041448;28;20021;-48
2021/03/09 10:37:16;;;;;;;7.57;5.60;;;1.00;99.90;;;;;;5046868;28;20016;-48
2021/03/09 10:39:56;;;;;;;9.43;5.63;;;1.10;99.90;;;;;;5045825;28;20024;-49
2021/03/09 10:42:28;;;;;;;10.93;5.57;;;1.10;99.90;;;;;;5045523;28;20502;-52
2021/03/09 10:44:56;;;;;;;7.05;5.50;;;1.10;99.90;;;;;;5045469;28;20083;-51
2021/03/09 10:47:22;;;;;;;7.47;5.25;;;1.10;99.90;;;;;;5047924;28;20470;-53
2021/03/09 10:49:48;;;;;;;7.18;5.15;;;1.10;99.90;;;;;;5045134;28;20021;-47
2021/03/09 10:52:13;;;;;;;9.52;4.90;;;1.20;99.90;;;;;;5047581;28;20036;-49
2021/03/09 10:54:40;;;;;;;8.82;5.85;;;1.20;99.90;;;;;;5046369;28;20040;-49
2021/03/09 10:57:08;;;;;;;9.05;5.90;;;1.20;99.90;;;;;;5048216;28;20033;-48
2021/03/09 10:59:34;;;;;;;10.90;5.60;;;1.30;99.90;;;;;;5050777;28;20025;-48
2021/03/09 11:01:59;;;;;;;10.52;6.15;;;1.40;99.90;;;;;;5040034;28;20150;-54
2021/03/09 11:04:25;;;;;;;9.48;5.82;;;1.40;99.90;;;;;;5049874;28;20599;-46
2021/03/09 11:06:51;;;;;;;9.70;6.50;;;1.50;99.90;;;;;;5056897;28;20526;-47
2021/03/09 11:09:17;;;;;;;11.40;7.40;;;1.50;99.90;;;;;;5055708;28;20029;-47
2021/03/09 11:11:43;;;;;;;11.30;7.07;;;1.60;99.90;;;;;;5049060;28;20029;-48
2021/03/09 11:14:09;;;;;;;14.82;8.23;;;1.70;99.90;;;;;;5042712;28;20025;-51
2021/03/09 11:16:34;;;;;;;10.98;7.13;;;1.80;99.90;;;;;;5048163;28;20487;-47
2021/03/09 11:19:00;;;;;;;10.98;6.93;;;1.80;99.90;;;;;;5040258;28;20121;-47
2021/03/09 11:21:27;;;;;;;7.50;6.20;;;1.90;99.90;;;;;;5051186;28;20226;-48
2021/03/09 11:23:53;;;;;;;12.45;7.40;;;1.90;99.90;;;;;;5046903;28;20028;-50
2021/03/09 11:26:23;;;;;;;12.23;6.03;;;2.00;99.90;;;;;;5049883;28;20024;-48
2021/03/09 11:28:50;;;;;;;8.25;6.13;;;2.00;99.90;;;;;;5049331;28;20019;-48
2021/03/09 11:31:16;;;;;;;12.68;6.28;;;2.10;99.90;;;;;;5047815;28;20032;-48
2021/03/09 11:33:42;;;;;;;11.07;6.45;;;2.10;99.90;;;;;;5051150;28;20432;-47
2021/03/09 11:36:09;;;;;;;8.68;5.72;;;2.00;99.90;;;;;;5053398;28;20052;-51
2021/03/09 11:38:35;;;;;;;10.70;6.35;;;2.10;99.90;;;;;;5049155;28;20104;-53
2021/03/09 11:41:01;;;;;;;9.23;6.15;;;2.10;99.90;;;;;;5043929;28;20167;-48
2021/03/09 11:43:27;;;;;;;9.20;6.18;;;2.10;99.90;;;;;;5056916;28;20097;-50
2021/03/09 11:45:53;;;;;;;9.77;5.78;;;2.20;99.90;;;;;;5050206;28;20029;-51
2021/03/09 11:48:18;;;;;;;8.68;5.93;;;2.20;99.90;;;;;;5052624;28;20018;-52
2021/03/09 11:50:44;;;;;;;9.80;6.40;;;2.20;99.90;;;;;;5048665;28;20025;-48
2021/03/09 11:53:09;;;;;;;10.52;6.15;;;2.30;99.90;;;;;;5048207;28;20037;-49
2021/03/09 11:55:35;;;;;;;7.72;6.13;;;2.40;99.90;;;;;;5056097;28;20405;-51
2021/03/09 11:58:01;;;;;;;10.73;5.72;;;2.40;99.90;;;;;;5048173;28;20033;-51
2021/03/09 12:00:26;;;;;;;9.88;6.15;;;2.50;99.90;;;;;;5052082;28;20487;-50
2021/03/09 12:02:52;;;;;;;8.07;5.93;;;2.50;99.90;;;;;;5049440;28;20040;-48
2021/03/09 12:05:17;;;;;;;9.98;6.13;;;2.60;99.90;;;;;;5056005;28;20032;-49
2021/03/09 12:07:43;;;;;;;10.68;6.22;;;2.60;99.90;;;;;;5061574;28;20025;-47
2021/03/09 12:10:09;;;;;;;8.27;6.15;;;2.60;99.90;;;;;;5056467;28;20017;-46
2021/03/09 12:12:35;;;;;;;9.00;5.78;;;2.60;99.90;;;;;;5052643;28;20040;-50
2021/03/09 12:15:00;;;;;;;7.75;5.63;;;2.70;99.90;;;;;;5050826;28;20040;-52
2021/03/09 12:17:26;;;;;;;8.00;5.85;;;2.70;99.90;;;;;;5055254;28;20040;-46
2021/03/09 12:19:52;;;;;;;9.10;6.13;;;2.80;99.90;;;;;;5059622;28;20048;-46
2021/03/09 12:22:17;;;;;;;9.43;7.00;;;2.80;99.90;;;;;;5052346;28;20518;-47
2021/03/09 12:24:43;;;;;;;9.82;6.65;;;2.80;99.90;;;;;;5049856;28;20055;-51
2021/03/09 12:27:08;;;;;;;7.85;5.80;;;2.90;99.90;;;;;;5056440;28;20544;-49
2021/03/09 12:29:34;;;;;;;9.38;5.82;;;2.90;99.90;;;;;;5060646;28;20549;-51
2021/03/09 12:31:59;;;;;;;11.27;6.78;;;2.90;99.90;;;;;;5051356;28;20487;-48
2021/03/09 12:34:25;;;;;;;10.85;5.68;;;2.90;99.90;;;;;;5053239;28;20365;-48
2021/03/09 12:36:51;;;;;;;9.48;5.82;;;2.90;99.90;;;;;;5060313;28;20025;-48
2021/03/09 12:39:16;;;;;;;10.20;5.95;;;3.00;99.90;;;;;;5053300;28;20096;-47
2021/03/09 12:41:42;;;;;;;10.32;5.80;;;3.00;99.90;;;;;;5075586;22;20557;-61
2021/03/09 12:44:07;;;;;;;9.38;6.47;;;3.00;99.90;;;;;;5064729;28;20029;-63
2021/03/09 12:46:33;;;;;;;10.38;6.57;;;3.00;99.90;;;;;;5068928;28;20107;-60
2021/03/09 12:48:58;;;;;;;9.82;6.00;;;3.00;99.90;;;;;;5059689;28;20056;-60
2021/03/09 12:51:24;;;;;;;11.95;6.40;;;3.00;99.90;;;;;;5051913;28;20028;-58
2021/03/09 12:53:50;;;;;;;11.30;6.70;;;3.00;99.90;;;;;;5025482;28;20033;-63
2021/03/09 12:56:15;;;;;;;11.35;5.75;;;3.10;99.90;;;;;;5025487;28;20053;-59
2021/03/09 12:58:41;;;;;;;8.13;6.07;;;3.10;99.90;;;;;;5024689;28;20588;-59
2021/03/09 13:01:07;;;;;;;8.93;5.90;;;3.10;99.90;;;;;;5031139;28;20028;-61
2021/03/09 13:03:32;;;;;;;7.85;5.95;;;3.20;99.90;;;;;;5029386;28;20482;-60
2021/03/09 13:05:58;;;;;;;11.48;6.63;;;3.20;99.90;;;;;;5032342;28;20511;-62
2021/03/09 13:08:25;;;;;;;9.38;6.00;;;3.20;99.90;;;;;;5041726;28;20515;-60